sensor_id;sensor_type;location;lat;lon;timestamp;P1;durP1;ratioP1;P2;durP2;ratioP2
3066;SDS011;1544;48.834;9.194;2024-01-16T00:00:09;3.30;;;1.93;;
3066;SDS011;1544;48.834;9.194;2024-01-16T00:02:45;9.20;;;2.83;;
3066;SDS011;1544;48.834;9.194;2024-01-16T00:05:21;3.50;;;2.47;;
3066;SDS011;1544;48.834;9.194;2024-01-16T00:07:57;2.77;;;2.10;;
3066;SDS011;1544;48.834;9.194;2024-01-16T00:10:35;2.87;;;2.60;;
3066;SDS011;1544;48.834;9.194;2024-01-16T00:13:11;3.47;;;2.13;;
3066;SDS011;1544;48.834;9.194;2024-01-16T00:15:47;3.03;;;2.30;;
3066;SDS011;1544;48.834;9.194;2024-01-16T00:18:24;2.63;;;2.00;;
3066;SDS011;1544;48.834;9.194;2024-01-16T00:21:01;3.17;;;2.47;;
3066;SDS011;1544;48.834;9.194;2024-01-16T00:23:40;3.03;;;2.00;;
3066;SDS011;1544;48.834;9.194;2024-01-16T00:26:19;3.63;;;1.93;;
3066;SDS011;1544;48.834;9.194;2024-01-16T00:28:58;1.93;;;1.80;;
3066;SDS011;1544;48.834;9.194;2024-01-16T00:31:34;3.23;;;2.50;;
3066;SDS011;1544;48.834;9.194;2024-01-16T00:34:10;4.03;;;2.27;;
3066;SDS011;1544;48.834;9.194;2024-01-16T00:36:47;3.50;;;2.40;;
3066;SDS011;1544;48.834;9.194;2024-01-16T00:39:23;6.07;;;3.00;;
3066;SDS011;1544;48.834;9.194;2024-01-16T00:41:59;2.80;;;2.60;;
3066;SDS011;1544;48.834;9.194;2024-01-16T00:44:36;4.03;;;2.65;;
3066;SDS011;1544;48.834;9.194;2024-01-16T00:47:12;5.30;;;2.57;;
3066;SDS011;1544;48.834;9.194;2024-01-16T00:49:48;3.73;;;2.17;;
3066;SDS011;1544;48.834;9.194;2024-01-16T00:52:23;5.57;;;2.40;;
3066;SDS011;1544;48.834;9.194;2024-01-16T00:54:59;4.30;;;3.23;;
3066;SDS011;1544;48.834;9.194;2024-01-16T00:57:35;5.40;;;2.77;;
3066;SDS011;1544;48.834;9.194;2024-01-16T01:00:11;4.50;;;3.00;;
3066;SDS011;1544;48.834;9.194;2024-01-16T01:02:48;3.10;;;2.37;;
3066;SDS011;1544;48.834;9.194;2024-01-16T01:05:24;3.80;;;3.20;;
3066;SDS011;1544;48.834;9.194;2024-01-16T01:08:04;6.77;;;3.30;;
3066;SDS011;1544;48.834;9.194;2024-01-16T01:10:41;5.43;;;2.53;;
3066;SDS011;1544;48.834;9.194;2024-01-16T01:13:17;3.63;;;2.30;;
3066;SDS011;1544;48.834;9.194;2024-01-16T01:15:53;3.67;;;2.93;;
3066;SDS011;1544;48.834;9.194;2024-01-16T01:18:29;3.87;;;2.90;;
3066;SDS011;1544;48.834;9.194;2024-01-16T01:21:05;5.60;;;3.60;;
3066;SDS011;1544;48.834;9.194;2024-01-16T01:23:41;2.67;;;2.47;;
3066;SDS011;1544;48.834;9.194;2024-01-16T01:26:18;3.00;;;2.65;;
3066;SDS011;1544;48.834;9.194;2024-01-16T01:28:54;3.57;;;2.57;;
3066;SDS011;1544;48.834;9.194;2024-01-16T01:31:30;5.37;;;3.30;;
3066;SDS011;1544;48.834;9.194;2024-01-16T01:34:06;3.10;;;2.80;;
3066;SDS011;1544;48.834;9.194;2024-01-16T01:36:42;3.33;;;2.67;;
3066;SDS011;1544;48.834;9.194;2024-01-16T01:39:19;4.17;;;2.80;;
3066;SDS011;1544;48.834;9.194;2024-01-16T01:41:54;3.60;;;2.50;;
3066;SDS011;1544;48.834;9.194;2024-01-16T01:44:30;4.60;;;3.80;;
3066;SDS011;1544;48.834;9.194;2024-01-16T01:47:06;5.10;;;3.00;;
3066;SDS011;1544;48.834;9.194;2024-01-16T01:49:44;3.40;;;3.00;;
3066;SDS011;1544;48.834;9.194;2024-01-16T01:52:20;3.67;;;2.80;;
3066;SDS011;1544;48.834;9.194;2024-01-16T01:54:55;5.60;;;2.90;;
3066;SDS011;1544;48.834;9.194;2024-01-16T01:57:33;4.28;;;2.65;;
3066;SDS011;1544;48.834;9.194;2024-01-16T02:00:09;5.23;;;3.33;;
3066;SDS011;1544;48.834;9.194;2024-01-16T02:02:49;4.30;;;2.63;;
3066;SDS011;1544;48.834;9.194;2024-01-16T02:05:28;5.35;;;2.35;;
3066;SDS011;1544;48.834;9.194;2024-01-16T02:08:05;4.83;;;2.67;;
3066;SDS011;1544;48.834;9.194;2024-01-16T02:10:42;6.72;;;3.08;;
3066;SDS011;1544;48.834;9.194;2024-01-16T02:13:21;6.57;;;3.60;;
3066;SDS011;1544;48.834;9.194;2024-01-16T02:15:58;5.28;;;3.20;;
3066;SDS011;1544;48.834;9.194;2024-01-16T02:18:34;3.50;;;2.50;;
3066;SDS011;1544;48.834;9.194;2024-01-16T02:21:11;4.83;;;2.70;;
3066;SDS011;1544;48.834;9.194;2024-01-16T02:23:56;7.30;;;3.37;;
3066;SDS011;1544;48.834;9.194;2024-01-16T02:26:32;5.78;;;3.60;;
3066;SDS011;1544;48.834;9.194;2024-01-16T02:29:08;6.20;;;3.73;;
3066;SDS011;1544;48.834;9.194;2024-01-16T02:31:44;4.70;;;3.17;;
3066;SDS011;1544;48.834;9.194;2024-01-16T02:34:20;4.87;;;3.10;;
3066;SDS011;1544;48.834;9.194;2024-01-16T02:36:56;4.83;;;3.00;;
3066;SDS011;1544;48.834;9.194;2024-01-16T02:39:32;3.67;;;3.03;;
3066;SDS011;1544;48.834;9.194;2024-01-16T02:42:08;2.67;;;2.40;;
3066;SDS011;1544;48.834;9.194;2024-01-16T02:44:44;3.93;;;3.53;;
3066;SDS011;1544;48.834;9.194;2024-01-16T02:47:20;7.23;;;3.00;;
3066;SDS011;1544;48.834;9.194;2024-01-16T02:49:56;2.80;;;2.60;;
3066;SDS011;1544;48.834;9.194;2024-01-16T02:52:33;3.80;;;2.80;;
3066;SDS011;1544;48.834;9.194;2024-01-16T02:55:09;3.43;;;2.63;;
3066;SDS011;1544;48.834;9.194;2024-01-16T02:57:45;3.60;;;2.63;;
3066;SDS011;1544;48.834;9.194;2024-01-16T03:00:21;4.50;;;2.70;;
3066;SDS011;1544;48.834;9.194;2024-01-16T03:02:58;4.70;;;2.50;;
3066;SDS011;1544;48.834;9.194;2024-01-16T03:05:34;3.63;;;2.60;;
3066;SDS011;1544;48.834;9.194;2024-01-16T03:08:10;3.10;;;2.53;;
3066;SDS011;1544;48.834;9.194;2024-01-16T03:10:46;3.30;;;2.53;;
3066;SDS011;1544;48.834;9.194;2024-01-16T03:13:22;3.93;;;3.27;;
3066;SDS011;1544;48.834;9.194;2024-01-16T03:15:58;3.10;;;2.30;;
3066;SDS011;1544;48.834;9.194;2024-01-16T03:18:34;3.97;;;2.67;;
3066;SDS011;1544;48.834;9.194;2024-01-16T03:21:10;3.37;;;2.43;;
3066;SDS011;1544;48.834;9.194;2024-01-16T03:23:48;3.13;;;2.70;;
3066;SDS011;1544;48.834;9.194;2024-01-16T03:26:25;4.77;;;3.23;;
3066;SDS011;1544;48.834;9.194;2024-01-16T03:29:01;3.80;;;2.63;;
3066;SDS011;1544;48.834;9.194;2024-01-16T03:31:37;3.90;;;3.05;;
3066;SDS011;1544;48.834;9.194;2024-01-16T03:34:13;3.67;;;2.93;;
3066;SDS011;1544;48.834;9.194;2024-01-16T03:36:50;5.35;;;2.70;;
3066;SDS011;1544;48.834;9.194;2024-01-16T03:39:26;6.60;;;3.27;;
3066;SDS011;1544;48.834;9.194;2024-01-16T03:42:01;6.13;;;4.55;;
3066;SDS011;1544;48.834;9.194;2024-01-16T03:44:41;3.80;;;3.20;;
3066;SDS011;1544;48.834;9.194;2024-01-16T03:47:17;3.60;;;2.87;;
3066;SDS011;1544;48.834;9.194;2024-01-16T03:49:54;3.77;;;3.10;;
3066;SDS011;1544;48.834;9.194;2024-01-16T03:52:30;6.22;;;2.90;;
3066;SDS011;1544;48.834;9.194;2024-01-16T03:55:06;4.87;;;3.40;;
3066;SDS011;1544;48.834;9.194;2024-01-16T03:57:42;4.27;;;2.60;;
3066;SDS011;1544;48.834;9.194;2024-01-16T04:00:18;6.15;;;2.85;;
3066;SDS011;1544;48.834;9.194;2024-01-16T04:02:54;3.80;;;2.93;;
3066;SDS011;1544;48.834;9.194;2024-01-16T04:05:30;5.00;;;2.67;;
3066;SDS011;1544;48.834;9.194;2024-01-16T04:08:06;3.00;;;2.78;;
3066;SDS011;1544;48.834;9.194;2024-01-16T04:10:42;5.50;;;3.23;;
3066;SDS011;1544;48.834;9.194;2024-01-16T04:13:18;5.20;;;3.10;;
3066;SDS011;1544;48.834;9.194;2024-01-16T04:15:54;4.10;;;2.77;;
3066;SDS011;1544;48.834;9.194;2024-01-16T04:18:32;5.63;;;3.22;;
3066;SDS011;1544;48.834;9.194;2024-01-16T04:21:13;3.78;;;2.92;;
3066;SDS011;1544;48.834;9.194;2024-01-16T04:23:52;5.20;;;2.60;;
3066;SDS011;1544;48.834;9.194;2024-01-16T04:26:29;3.43;;;2.63;;
3066;SDS011;1544;48.834;9.194;2024-01-16T04:29:04;4.17;;;3.00;;
3066;SDS011;1544;48.834;9.194;2024-01-16T04:31:41;3.67;;;2.60;;
3066;SDS011;1544;48.834;9.194;2024-01-16T04:34:17;4.70;;;2.63;;
3066;SDS011;1544;48.834;9.194;2024-01-16T04:36:53;4.00;;;2.93;;
3066;SDS011;1544;48.834;9.194;2024-01-16T04:39:29;5.30;;;3.23;;
3066;SDS011;1544;48.834;9.194;2024-01-16T04:42:05;6.30;;;2.90;;
3066;SDS011;1544;48.834;9.194;2024-01-16T04:44:41;5.97;;;3.10;;
3066;SDS011;1544;48.834;9.194;2024-01-16T04:47:17;4.15;;;3.42;;
3066;SDS011;1544;48.834;9.194;2024-01-16T04:49:53;6.43;;;3.13;;
3066;SDS011;1544;48.834;9.194;2024-01-16T04:52:29;4.00;;;2.80;;
3066;SDS011;1544;48.834;9.194;2024-01-16T04:55:05;4.67;;;3.00;;
3066;SDS011;1544;48.834;9.194;2024-01-16T04:57:41;3.60;;;2.97;;
3066;SDS011;1544;48.834;9.194;2024-01-16T05:00:17;3.90;;;2.50;;
3066;SDS011;1544;48.834;9.194;2024-01-16T05:02:53;4.72;;;3.40;;
3066;SDS011;1544;48.834;9.194;2024-01-16T05:05:29;6.13;;;3.30;;
3066;SDS011;1544;48.834;9.194;2024-01-16T05:08:05;3.90;;;2.85;;
3066;SDS011;1544;48.834;9.194;2024-01-16T05:10:41;2.97;;;2.60;;
3066;SDS011;1544;48.834;9.194;2024-01-16T05:13:19;4.77;;;2.57;;
3066;SDS011;1544;48.834;9.194;2024-01-16T05:15:55;4.70;;;2.38;;
3066;SDS011;1544;48.834;9.194;2024-01-16T05:18:31;3.67;;;2.40;;
3066;SDS011;1544;48.834;9.194;2024-01-16T05:21:10;4.53;;;3.05;;
3066;SDS011;1544;48.834;9.194;2024-01-16T05:23:46;2.85;;;2.53;;
3066;SDS011;1544;48.834;9.194;2024-01-16T05:26:22;4.38;;;2.85;;
3066;SDS011;1544;48.834;9.194;2024-01-16T05:28:58;6.28;;;2.90;;
3066;SDS011;1544;48.834;9.194;2024-01-16T05:31:39;5.77;;;3.37;;
3066;SDS011;1544;48.834;9.194;2024-01-16T05:34:16;4.82;;;3.13;;
3066;SDS011;1544;48.834;9.194;2024-01-16T05:36:53;2.92;;;2.55;;
3066;SDS011;1544;48.834;9.194;2024-01-16T05:39:29;4.60;;;3.05;;
3066;SDS011;1544;48.834;9.194;2024-01-16T05:42:06;4.20;;;2.70;;
3066;SDS011;1544;48.834;9.194;2024-01-16T05:44:42;7.30;;;3.72;;
3066;SDS011;1544;48.834;9.194;2024-01-16T05:47:18;3.42;;;2.92;;
3066;SDS011;1544;48.834;9.194;2024-01-16T05:49:54;4.70;;;3.17;;
3066;SDS011;1544;48.834;9.194;2024-01-16T05:52:31;7.22;;;2.80;;
3066;SDS011;1544;48.834;9.194;2024-01-16T05:55:07;7.28;;;3.60;;
3066;SDS011;1544;48.834;9.194;2024-01-16T05:57:43;4.57;;;3.17;;
3066;SDS011;1544;48.834;9.194;2024-01-16T06:00:19;5.00;;;3.20;;
3066;SDS011;1544;48.834;9.194;2024-01-16T06:02:58;5.47;;;2.70;;
3066;SDS011;1544;48.834;9.194;2024-01-16T06:05:34;4.22;;;3.30;;
3066;SDS011;1544;48.834;9.194;2024-01-16T06:08:10;5.03;;;3.15;;
3066;SDS011;1544;48.834;9.194;2024-01-16T06:10:46;5.38;;;3.40;;
3066;SDS011;1544;48.834;9.194;2024-01-16T06:13:22;4.70;;;3.53;;
3066;SDS011;1544;48.834;9.194;2024-01-16T06:15:57;7.78;;;3.45;;
3066;SDS011;1544;48.834;9.194;2024-01-16T06:18:34;13.35;;;3.58;;
3066;SDS011;1544;48.834;9.194;2024-01-16T06:21:11;7.22;;;3.33;;
3066;SDS011;1544;48.834;9.194;2024-01-16T06:23:47;5.75;;;2.88;;
3066;SDS011;1544;48.834;9.194;2024-01-16T06:26:23;9.27;;;4.30;;
3066;SDS011;1544;48.834;9.194;2024-01-16T06:28:59;7.00;;;3.15;;
3066;SDS011;1544;48.834;9.194;2024-01-16T06:31:35;6.43;;;2.77;;
3066;SDS011;1544;48.834;9.194;2024-01-16T06:34:11;3.15;;;2.65;;
3066;SDS011;1544;48.834;9.194;2024-01-16T06:36:47;3.20;;;2.58;;
3066;SDS011;1544;48.834;9.194;2024-01-16T06:39:24;3.55;;;2.42;;
3066;SDS011;1544;48.834;9.194;2024-01-16T06:41:59;4.33;;;2.40;;
3066;SDS011;1544;48.834;9.194;2024-01-16T06:44:35;3.67;;;2.50;;
3066;SDS011;1544;48.834;9.194;2024-01-16T06:47:11;5.97;;;2.47;;
3066;SDS011;1544;48.834;9.194;2024-01-16T06:49:47;5.90;;;2.60;;
3066;SDS011;1544;48.834;9.194;2024-01-16T06:52:23;4.28;;;2.38;;
3066;SDS011;1544;48.834;9.194;2024-01-16T06:54:59;3.10;;;2.80;;
3066;SDS011;1544;48.834;9.194;2024-01-16T06:57:35;5.68;;;3.85;;
3066;SDS011;1544;48.834;9.194;2024-01-16T07:00:12;4.73;;;2.80;;
3066;SDS011;1544;48.834;9.194;2024-01-16T07:02:49;3.20;;;2.17;;
3066;SDS011;1544;48.834;9.194;2024-01-16T07:05:26;6.85;;;2.92;;
3066;SDS011;1544;48.834;9.194;2024-01-16T07:08:03;3.28;;;2.03;;
3066;SDS011;1544;48.834;9.194;2024-01-16T07:10:39;3.97;;;3.10;;
3066;SDS011;1544;48.834;9.194;2024-01-16T07:13:18;3.72;;;2.20;;
3066;SDS011;1544;48.834;9.194;2024-01-16T07:15:59;5.85;;;2.58;;
3066;SDS011;1544;48.834;9.194;2024-01-16T07:18:36;3.45;;;2.20;;
3066;SDS011;1544;48.834;9.194;2024-01-16T07:21:19;3.30;;;2.00;;
3066;SDS011;1544;48.834;9.194;2024-01-16T07:23:56;3.45;;;2.30;;
3066;SDS011;1544;48.834;9.194;2024-01-16T07:26:33;5.10;;;2.50;;
3066;SDS011;1544;48.834;9.194;2024-01-16T07:29:09;2.90;;;1.75;;
3066;SDS011;1544;48.834;9.194;2024-01-16T07:31:46;3.20;;;1.80;;
3066;SDS011;1544;48.834;9.194;2024-01-16T07:34:22;4.25;;;2.10;;
3066;SDS011;1544;48.834;9.194;2024-01-16T07:36:58;4.45;;;1.90;;
3066;SDS011;1544;48.834;9.194;2024-01-16T07:39:34;1.95;;;1.80;;
3066;SDS011;1544;48.834;9.194;2024-01-16T07:42:10;3.75;;;2.10;;
3066;SDS011;1544;48.834;9.194;2024-01-16T07:44:46;3.37;;;2.20;;
3066;SDS011;1544;48.834;9.194;2024-01-16T07:47:22;3.33;;;2.20;;
3066;SDS011;1544;48.834;9.194;2024-01-16T07:49:58;3.15;;;1.90;;
3066;SDS011;1544;48.834;9.194;2024-01-16T07:52:35;1.90;;;1.70;;
3066;SDS011;1544;48.834;9.194;2024-01-16T07:55:11;2.25;;;1.77;;
3066;SDS011;1544;48.834;9.194;2024-01-16T07:57:46;2.05;;;1.85;;
3066;SDS011;1544;48.834;9.194;2024-01-16T08:00:22;3.63;;;1.80;;
3066;SDS011;1544;48.834;9.194;2024-01-16T08:02:58;3.80;;;1.95;;
3066;SDS011;1544;48.834;9.194;2024-01-16T08:05:34;4.10;;;1.97;;
3066;SDS011;1544;48.834;9.194;2024-01-16T08:08:10;3.33;;;1.97;;
3066;SDS011;1544;48.834;9.194;2024-01-16T08:10:47;3.25;;;1.83;;
3066;SDS011;1544;48.834;9.194;2024-01-16T08:13:23;2.85;;;1.70;;
3066;SDS011;1544;48.834;9.194;2024-01-16T08:15:59;2.07;;;1.70;;
3066;SDS011;1544;48.834;9.194;2024-01-16T08:18:35;2.90;;;1.85;;
3066;SDS011;1544;48.834;9.194;2024-01-16T08:21:11;2.93;;;1.93;;
3066;SDS011;1544;48.834;9.194;2024-01-16T08:23:47;2.70;;;1.83;;
3066;SDS011;1544;48.834;9.194;2024-01-16T08:26:23;1.90;;;1.70;;
3066;SDS011;1544;48.834;9.194;2024-01-16T08:28:59;3.30;;;1.73;;
3066;SDS011;1544;48.834;9.194;2024-01-16T08:31:35;1.93;;;1.70;;
3066;SDS011;1544;48.834;9.194;2024-01-16T08:34:11;2.37;;;1.87;;
3066;SDS011;1544;48.834;9.194;2024-01-16T08:36:47;2.03;;;1.83;;
3066;SDS011;1544;48.834;9.194;2024-01-16T08:39:23;2.80;;;1.90;;
3066;SDS011;1544;48.834;9.194;2024-01-16T08:42:03;2.87;;;1.73;;
3066;SDS011;1544;48.834;9.194;2024-01-16T08:44:40;3.20;;;1.73;;
3066;SDS011;1544;48.834;9.194;2024-01-16T08:47:16;2.80;;;1.80;;
3066;SDS011;1544;48.834;9.194;2024-01-16T08:49:52;2.40;;;1.90;;
3066;SDS011;1544;48.834;9.194;2024-01-16T08:52:28;3.50;;;1.60;;
3066;SDS011;1544;48.834;9.194;2024-01-16T08:55:04;3.93;;;1.70;;
3066;SDS011;1544;48.834;9.194;2024-01-16T08:57:40;1.80;;;1.50;;
3066;SDS011;1544;48.834;9.194;2024-01-16T09:00:17;2.40;;;1.63;;
3066;SDS011;1544;48.834;9.194;2024-01-16T09:02:53;2.43;;;1.60;;
3066;SDS011;1544;48.834;9.194;2024-01-16T09:05:29;3.20;;;1.60;;
3066;SDS011;1544;48.834;9.194;2024-01-16T09:08:05;2.90;;;2.07;;
3066;SDS011;1544;48.834;9.194;2024-01-16T09:10:44;2.27;;;1.83;;
3066;SDS011;1544;48.834;9.194;2024-01-16T09:13:20;2.40;;;1.63;;
3066;SDS011;1544;48.834;9.194;2024-01-16T09:15:56;1.93;;;1.30;;
3066;SDS011;1544;48.834;9.194;2024-01-16T09:18:32;1.83;;;1.63;;
3066;SDS011;1544;48.834;9.194;2024-01-16T09:21:09;3.90;;;1.43;;
3066;SDS011;1544;48.834;9.194;2024-01-16T09:23:45;1.97;;;1.40;;
3066;SDS011;1544;48.834;9.194;2024-01-16T09:26:21;2.03;;;1.63;;
3066;SDS011;1544;48.834;9.194;2024-01-16T09:28:57;2.00;;;1.60;;
3066;SDS011;1544;48.834;9.194;2024-01-16T09:31:32;2.03;;;1.50;;
3066;SDS011;1544;48.834;9.194;2024-01-16T09:34:08;2.57;;;1.30;;
3066;SDS011;1544;48.834;9.194;2024-01-16T09:36:45;2.57;;;1.80;;
3066;SDS011;1544;48.834;9.194;2024-01-16T09:39:21;2.60;;;1.40;;
3066;SDS011;1544;48.834;9.194;2024-01-16T09:41:59;1.90;;;1.53;;
3066;SDS011;1544;48.834;9.194;2024-01-16T09:44:38;2.50;;;1.83;;
3066;SDS011;1544;48.834;9.194;2024-01-16T09:47:15;3.70;;;1.60;;
3066;SDS011;1544;48.834;9.194;2024-01-16T09:49:52;2.63;;;1.30;;
3066;SDS011;1544;48.834;9.194;2024-01-16T09:52:29;2.40;;;1.57;;
3066;SDS011;1544;48.834;9.194;2024-01-16T09:55:05;1.60;;;1.50;;
3066;SDS011;1544;48.834;9.194;2024-01-16T09:57:41;1.90;;;1.70;;
3066;SDS011;1544;48.834;9.194;2024-01-16T10:00:21;6.23;;;2.53;;
3066;SDS011;1544;48.834;9.194;2024-01-16T10:02:59;3.63;;;2.40;;
3066;SDS011;1544;48.834;9.194;2024-01-16T10:05:36;4.93;;;2.10;;
3066;SDS011;1544;48.834;9.194;2024-01-16T10:08:16;3.80;;;1.87;;
3066;SDS011;1544;48.834;9.194;2024-01-16T10:10:54;2.37;;;2.03;;
3066;SDS011;1544;48.834;9.194;2024-01-16T10:13:31;2.53;;;1.80;;
3066;SDS011;1544;48.834;9.194;2024-01-16T10:16:08;3.20;;;1.60;;
3066;SDS011;1544;48.834;9.194;2024-01-16T10:18:44;3.70;;;1.73;;
3066;SDS011;1544;48.834;9.194;2024-01-16T10:21:21;2.63;;;1.60;;
3066;SDS011;1544;48.834;9.194;2024-01-16T10:24:03;4.60;;;1.97;;
3066;SDS011;1544;48.834;9.194;2024-01-16T10:26:49;2.20;;;1.43;;
3066;SDS011;1544;48.834;9.194;2024-01-16T10:29:36;2.50;;;2.27;;
3066;SDS011;1544;48.834;9.194;2024-01-16T10:32:27;3.80;;;2.33;;
3066;SDS011;1544;48.834;9.194;2024-01-16T10:35:12;3.03;;;1.70;;
3066;SDS011;1544;48.834;9.194;2024-01-16T10:37:50;3.83;;;1.67;;
3066;SDS011;1544;48.834;9.194;2024-01-16T10:40:28;2.67;;;1.90;;
3066;SDS011;1544;48.834;9.194;2024-01-16T10:43:06;2.53;;;2.20;;
3066;SDS011;1544;48.834;9.194;2024-01-16T10:45:43;2.67;;;1.53;;
3066;SDS011;1544;48.834;9.194;2024-01-16T10:48:19;2.80;;;1.60;;
3066;SDS011;1544;48.834;9.194;2024-01-16T10:50:55;5.23;;;2.07;;
3066;SDS011;1544;48.834;9.194;2024-01-16T10:53:33;3.27;;;1.90;;
3066;SDS011;1544;48.834;9.194;2024-01-16T10:56:12;9.33;;;2.57;;
3066;SDS011;1544;48.834;9.194;2024-01-16T10:58:51;4.17;;;2.47;;
3066;SDS011;1544;48.834;9.194;2024-01-16T11:01:41;3.93;;;2.37;;
3066;SDS011;1544;48.834;9.194;2024-01-16T11:04:21;2.80;;;1.80;;
3066;SDS011;1544;48.834;9.194;2024-01-16T11:06:59;3.63;;;2.50;;
3066;SDS011;1544;48.834;9.194;2024-01-16T11:09:36;2.20;;;2.00;;
3066;SDS011;1544;48.834;9.194;2024-01-16T11:12:13;2.90;;;2.07;;
3066;SDS011;1544;48.834;9.194;2024-01-16T11:14:51;2.23;;;2.03;;
3066;SDS011;1544;48.834;9.194;2024-01-16T11:17:29;4.53;;;1.70;;
3066;SDS011;1544;48.834;9.194;2024-01-16T11:20:08;2.70;;;1.70;;
3066;SDS011;1544;48.834;9.194;2024-01-16T11:22:55;1.90;;;1.80;;
3066;SDS011;1544;48.834;9.194;2024-01-16T11:25:34;5.40;;;2.40;;
3066;SDS011;1544;48.834;9.194;2024-01-16T11:28:14;2.90;;;1.90;;
3066;SDS011;1544;48.834;9.194;2024-01-16T11:30:51;3.80;;;2.30;;
3066;SDS011;1544;48.834;9.194;2024-01-16T11:36:40;3.50;;;2.13;;
3066;SDS011;1544;48.834;9.194;2024-01-16T11:39:31;4.27;;;2.40;;
3066;SDS011;1544;48.834;9.194;2024-01-16T11:42:07;5.13;;;2.03;;
3066;SDS011;1544;48.834;9.194;2024-01-16T11:44:46;4.50;;;2.63;;
3066;SDS011;1544;48.834;9.194;2024-01-16T11:47:26;6.60;;;2.30;;
3066;SDS011;1544;48.834;9.194;2024-01-16T11:50:09;4.03;;;2.40;;
3066;SDS011;1544;48.834;9.194;2024-01-16T11:52:47;3.60;;;2.30;;
3066;SDS011;1544;48.834;9.194;2024-01-16T11:55:30;4.70;;;2.53;;
3066;SDS011;1544;48.834;9.194;2024-01-16T12:01:20;1.73;;;1.40;;
3066;SDS011;1544;48.834;9.194;2024-01-16T12:04:06;3.07;;;1.80;;
3066;SDS011;1544;48.834;9.194;2024-01-16T12:06:44;1.83;;;1.63;;
3066;SDS011;1544;48.834;9.194;2024-01-16T12:09:34;3.70;;;1.70;;
3066;SDS011;1544;48.834;9.194;2024-01-16T12:12:10;6.37;;;2.30;;
3066;SDS011;1544;48.834;9.194;2024-01-16T12:14:51;6.90;;;2.20;;
3066;SDS011;1544;48.834;9.194;2024-01-16T12:17:30;3.43;;;1.90;;
3066;SDS011;1544;48.834;9.194;2024-01-16T12:20:15;3.70;;;1.40;;
3066;SDS011;1544;48.834;9.194;2024-01-16T12:22:57;2.43;;;1.70;;
3066;SDS011;1544;48.834;9.194;2024-01-16T12:25:40;3.03;;;1.47;;
3066;SDS011;1544;48.834;9.194;2024-01-16T12:28:36;3.60;;;1.67;;
3066;SDS011;1544;48.834;9.194;2024-01-16T12:31:17;3.30;;;1.60;;
3066;SDS011;1544;48.834;9.194;2024-01-16T12:33:54;4.70;;;1.77;;
3066;SDS011;1544;48.834;9.194;2024-01-16T12:36:44;2.57;;;2.10;;
3066;SDS011;1544;48.834;9.194;2024-01-16T12:39:21;6.10;;;2.00;;
3066;SDS011;1544;48.834;9.194;2024-01-16T12:41:58;3.80;;;1.50;;
3066;SDS011;1544;48.834;9.194;2024-01-16T12:44:35;1.63;;;1.50;;
3066;SDS011;1544;48.834;9.194;2024-01-16T12:47:14;5.63;;;2.03;;
3066;SDS011;1544;48.834;9.194;2024-01-16T12:49:51;2.90;;;1.60;;
3066;SDS011;1544;48.834;9.194;2024-01-16T12:52:28;2.73;;;1.87;;
3066;SDS011;1544;48.834;9.194;2024-01-16T12:55:05;2.50;;;1.87;;
3066;SDS011;1544;48.834;9.194;2024-01-16T12:57:42;1.70;;;1.60;;
3066;SDS011;1544;48.834;9.194;2024-01-16T13:00:22;6.00;;;1.70;;
3066;SDS011;1544;48.834;9.194;2024-01-16T13:03:01;1.73;;;1.57;;
3066;SDS011;1544;48.834;9.194;2024-01-16T13:05:37;1.67;;;1.20;;
3066;SDS011;1544;48.834;9.194;2024-01-16T13:08:17;1.80;;;1.10;;
3066;SDS011;1544;48.834;9.194;2024-01-16T13:11:04;1.43;;;1.00;;
3066;SDS011;1544;48.834;9.194;2024-01-16T13:13:44;1.73;;;1.00;;
3066;SDS011;1544;48.834;9.194;2024-01-16T13:16:23;1.77;;;1.10;;
3066;SDS011;1544;48.834;9.194;2024-01-16T13:19:01;4.23;;;1.10;;
3066;SDS011;1544;48.834;9.194;2024-01-16T13:21:40;1.87;;;1.23;;
3066;SDS011;1544;48.834;9.194;2024-01-16T13:24:16;1.83;;;1.40;;
3066;SDS011;1544;48.834;9.194;2024-01-16T13:26:58;2.40;;;1.00;;
3066;SDS011;1544;48.834;9.194;2024-01-16T13:29:35;2.17;;;1.07;;
3066;SDS011;1544;48.834;9.194;2024-01-16T13:32:15;1.23;;;1.07;;
3066;SDS011;1544;48.834;9.194;2024-01-16T13:34:51;1.30;;;1.20;;
3066;SDS011;1544;48.834;9.194;2024-01-16T13:37:26;1.00;;;1.00;;
3066;SDS011;1544;48.834;9.194;2024-01-16T13:40:05;2.67;;;1.10;;
3066;SDS011;1544;48.834;9.194;2024-01-16T13:42:51;2.03;;;1.10;;
3066;SDS011;1544;48.834;9.194;2024-01-16T13:45:27;2.00;;;1.30;;
3066;SDS011;1544;48.834;9.194;2024-01-16T13:48:04;1.73;;;1.33;;
3066;SDS011;1544;48.834;9.194;2024-01-16T13:50:43;1.47;;;1.37;;
3066;SDS011;1544;48.834;9.194;2024-01-16T13:53:20;9.17;;;1.53;;
3066;SDS011;1544;48.834;9.194;2024-01-16T13:55:56;1.53;;;1.20;;
3066;SDS011;1544;48.834;9.194;2024-01-16T13:58:33;6.50;;;1.40;;
3066;SDS011;1544;48.834;9.194;2024-01-16T14:01:10;1.10;;;1.00;;
3066;SDS011;1544;48.834;9.194;2024-01-16T14:03:46;1.30;;;1.00;;
3066;SDS011;1544;48.834;9.194;2024-01-16T14:06:22;3.17;;;1.33;;
3066;SDS011;1544;48.834;9.194;2024-01-16T14:09:19;1.80;;;1.10;;
3066;SDS011;1544;48.834;9.194;2024-01-16T14:11:54;2.73;;;1.40;;
3066;SDS011;1544;48.834;9.194;2024-01-16T14:14:30;2.00;;;1.20;;
3066;SDS011;1544;48.834;9.194;2024-01-16T14:17:07;1.50;;;1.40;;
3066;SDS011;1544;48.834;9.194;2024-01-16T14:19:42;2.20;;;1.20;;
3066;SDS011;1544;48.834;9.194;2024-01-16T14:22:18;1.87;;;1.60;;
3066;SDS011;1544;48.834;9.194;2024-01-16T14:24:54;3.27;;;2.20;;
3066;SDS011;1544;48.834;9.194;2024-01-16T14:27:31;3.53;;;1.90;;
3066;SDS011;1544;48.834;9.194;2024-01-16T14:30:07;2.13;;;1.90;;
3066;SDS011;1544;48.834;9.194;2024-01-16T14:32:46;3.53;;;1.63;;
3066;SDS011;1544;48.834;9.194;2024-01-16T14:35:22;2.13;;;1.50;;
3066;SDS011;1544;48.834;9.194;2024-01-16T14:37:59;3.93;;;2.30;;
3066;SDS011;1544;48.834;9.194;2024-01-16T14:40:35;1.97;;;1.80;;
3066;SDS011;1544;48.834;9.194;2024-01-16T14:43:11;3.53;;;1.97;;
3066;SDS011;1544;48.834;9.194;2024-01-16T14:45:47;3.57;;;2.10;;
3066;SDS011;1544;48.834;9.194;2024-01-16T14:48:23;5.30;;;2.00;;
3066;SDS011;1544;48.834;9.194;2024-01-16T14:51:00;2.40;;;2.20;;
3066;SDS011;1544;48.834;9.194;2024-01-16T14:53:37;2.57;;;2.00;;
3066;SDS011;1544;48.834;9.194;2024-01-16T14:56:13;3.63;;;1.90;;
3066;SDS011;1544;48.834;9.194;2024-01-16T14:58:49;2.73;;;1.50;;
3066;SDS011;1544;48.834;9.194;2024-01-16T15:01:24;2.70;;;1.70;;
3066;SDS011;1544;48.834;9.194;2024-01-16T15:04:00;3.73;;;1.77;;
3066;SDS011;1544;48.834;9.194;2024-01-16T15:06:37;3.10;;;1.97;;
3066;SDS011;1544;48.834;9.194;2024-01-16T15:09:13;3.03;;;1.97;;
3066;SDS011;1544;48.834;9.194;2024-01-16T15:11:49;1.77;;;1.67;;
3066;SDS011;1544;48.834;9.194;2024-01-16T15:14:25;2.33;;;1.80;;
3066;SDS011;1544;48.834;9.194;2024-01-16T15:17:01;2.07;;;1.67;;
3066;SDS011;1544;48.834;9.194;2024-01-16T15:19:38;3.00;;;1.70;;
3066;SDS011;1544;48.834;9.194;2024-01-16T15:22:14;3.80;;;2.37;;
3066;SDS011;1544;48.834;9.194;2024-01-16T15:24:50;3.13;;;2.40;;
3066;SDS011;1544;48.834;9.194;2024-01-16T15:27:26;2.40;;;1.93;;
3066;SDS011;1544;48.834;9.194;2024-01-16T15:30:03;5.80;;;2.23;;
3066;SDS011;1544;48.834;9.194;2024-01-16T15:32:40;3.57;;;2.23;;
3066;SDS011;1544;48.834;9.194;2024-01-16T15:35:16;3.47;;;2.00;;
3066;SDS011;1544;48.834;9.194;2024-01-16T15:37:52;4.60;;;1.90;;
3066;SDS011;1544;48.834;9.194;2024-01-16T15:40:30;4.70;;;2.20;;
3066;SDS011;1544;48.834;9.194;2024-01-16T15:43:06;3.00;;;1.90;;
3066;SDS011;1544;48.834;9.194;2024-01-16T15:45:43;6.87;;;2.57;;
3066;SDS011;1544;48.834;9.194;2024-01-16T15:48:19;2.33;;;1.53;;
3066;SDS011;1544;48.834;9.194;2024-01-16T15:50:55;2.07;;;1.50;;
3066;SDS011;1544;48.834;9.194;2024-01-16T15:53:34;3.30;;;2.17;;
3066;SDS011;1544;48.834;9.194;2024-01-16T15:56:11;2.63;;;1.73;;
3066;SDS011;1544;48.834;9.194;2024-01-16T15:58:47;3.70;;;2.23;;
3066;SDS011;1544;48.834;9.194;2024-01-16T16:01:24;3.20;;;2.40;;
3066;SDS011;1544;48.834;9.194;2024-01-16T16:04:00;3.10;;;2.13;;
3066;SDS011;1544;48.834;9.194;2024-01-16T16:06:37;2.83;;;2.00;;
3066;SDS011;1544;48.834;9.194;2024-01-16T16:09:14;3.13;;;2.63;;
3066;SDS011;1544;48.834;9.194;2024-01-16T16:11:50;2.60;;;2.33;;
3066;SDS011;1544;48.834;9.194;2024-01-16T16:14:30;7.97;;;2.50;;
3066;SDS011;1544;48.834;9.194;2024-01-16T16:17:10;5.00;;;3.13;;
3066;SDS011;1544;48.834;9.194;2024-01-16T16:19:46;8.00;;;3.10;;
3066;SDS011;1544;48.834;9.194;2024-01-16T16:22:24;5.63;;;2.67;;